sensor_id;sensor_type;location;lat;lon;timestamp;P1;durP1;ratioP1;P2;durP2;ratioP2
64868;SDS011;51349;52.424;10.840;2022-11-06T00:02:17;5.17;;;3.43;;
64868;SDS011;51349;52.424;10.840;2022-11-06T00:07:17;4.23;;;3.80;;
64868;SDS011;51349;52.424;10.840;2022-11-06T00:12:18;4.73;;;3.20;;
64868;SDS011;51349;52.424;10.840;2022-11-06T00:17:19;3.70;;;3.40;;
64868;SDS011;51349;52.424;10.840;2022-11-06T00:22:19;3.33;;;3.03;;
64868;SDS011;51349;52.424;10.840;2022-11-06T00:27:20;5.00;;;3.17;;
64868;SDS011;51349;52.424;10.840;2022-11-06T00:32:20;4.20;;;3.33;;
64868;SDS011;51349;52.424;10.840;2022-11-06T00:37:21;3.67;;;3.07;;
64868;SDS011;51349;52.424;10.840;2022-11-06T00:42:21;3.43;;;2.90;;
64868;SDS011;51349;52.424;10.840;2022-11-06T00:47:22;3.53;;;3.10;;
64868;SDS011;51349;52.424;10.840;2022-11-06T00:52:23;4.47;;;3.10;;
64868;SDS011;51349;52.424;10.840;2022-11-06T00:57:24;4.57;;;3.00;;
64868;SDS011;51349;52.424;10.840;2022-11-06T01:02:24;2.90;;;2.70;;
64868;SDS011;51349;52.424;10.840;2022-11-06T01:07:25;3.57;;;3.07;;
64868;SDS011;51349;52.424;10.840;2022-11-06T01:12:25;3.93;;;3.17;;
64868;SDS011;51349;52.424;10.840;2022-11-06T01:17:26;6.63;;;3.10;;
64868;SDS011;51349;52.424;10.840;2022-11-06T01:22:27;4.20;;;3.37;;
64868;SDS011;51349;52.424;10.840;2022-11-06T01:27:28;2.93;;;2.73;;
64868;SDS011;51349;52.424;10.840;2022-11-06T01:32:33;3.33;;;2.90;;
64868;SDS011;51349;52.424;10.840;2022-11-06T01:37:33;6.00;;;3.00;;
64868;SDS011;51349;52.424;10.840;2022-11-06T01:42:34;5.17;;;2.93;;
64868;SDS011;51349;52.424;10.840;2022-11-06T01:47:34;3.47;;;3.10;;
64868;SDS011;51349;52.424;10.840;2022-11-06T01:52:35;5.10;;;3.13;;
64868;SDS011;51349;52.424;10.840;2022-11-06T01:57:37;3.30;;;3.00;;
64868;SDS011;51349;52.424;10.840;2022-11-06T02:02:38;2.97;;;2.70;;
64868;SDS011;51349;52.424;10.840;2022-11-06T02:07:39;3.80;;;3.03;;
64868;SDS011;51349;52.424;10.840;2022-11-06T02:12:44;3.83;;;2.80;;
64868;SDS011;51349;52.424;10.840;2022-11-06T02:33:30;5.03;;;3.27;;
64868;SDS011;51349;52.424;10.840;2022-11-06T02:38:37;3.13;;;2.83;;
64868;SDS011;51349;52.424;10.840;2022-11-06T02:43:43;5.17;;;3.10;;
64868;SDS011;51349;52.424;10.840;2022-11-06T02:48:50;3.50;;;3.00;;
64868;SDS011;51349;52.424;10.840;2022-11-06T02:53:55;3.67;;;3.37;;
64868;SDS011;51349;52.424;10.840;2022-11-06T02:59:02;3.30;;;3.00;;
64868;SDS011;51349;52.424;10.840;2022-11-06T03:04:14;3.07;;;2.77;;
64868;SDS011;51349;52.424;10.840;2022-11-06T03:09:36;4.13;;;3.13;;
64868;SDS011;51349;52.424;10.840;2022-11-06T03:14:43;3.73;;;2.97;;
64868;SDS011;51349;52.424;10.840;2022-11-06T03:30:27;3.30;;;3.10;;
64868;SDS011;51349;52.424;10.840;2022-11-06T03:35:30;3.67;;;3.37;;
64868;SDS011;51349;52.424;10.840;2022-11-06T03:40:44;3.43;;;3.13;;
64868;SDS011;51349;52.424;10.840;2022-11-06T03:46:12;4.53;;;3.60;;
64868;SDS011;51349;52.424;10.840;2022-11-06T03:51:19;4.87;;;3.50;;
64868;SDS011;51349;52.424;10.840;2022-11-06T03:56:32;4.27;;;3.87;;
64868;SDS011;51349;52.424;10.840;2022-11-06T04:01:38;5.80;;;3.70;;
64868;SDS011;51349;52.424;10.840;2022-11-06T04:06:45;5.80;;;3.77;;
64868;SDS011;51349;52.424;10.840;2022-11-06T04:11:50;6.37;;;3.57;;
64868;SDS011;51349;52.424;10.840;2022-11-06T04:17:11;4.23;;;3.50;;
64868;SDS011;51349;52.424;10.840;2022-11-06T04:27:59;3.60;;;3.30;;
64868;SDS011;51349;52.424;10.840;2022-11-06T04:33:24;4.03;;;3.63;;
64868;SDS011;51349;52.424;10.840;2022-11-06T04:38:45;4.17;;;3.77;;
64868;SDS011;51349;52.424;10.840;2022-11-06T04:43:53;3.70;;;3.40;;
64868;SDS011;51349;52.424;10.840;2022-11-06T04:48:58;3.43;;;3.00;;
64868;SDS011;51349;52.424;10.840;2022-11-06T04:54:02;3.93;;;3.10;;
64868;SDS011;51349;52.424;10.840;2022-11-06T04:59:05;3.83;;;3.47;;
64868;SDS011;51349;52.424;10.840;2022-11-06T05:04:06;5.43;;;3.20;;
64868;SDS011;51349;52.424;10.840;2022-11-06T05:09:07;3.50;;;3.20;;
64868;SDS011;51349;52.424;10.840;2022-11-06T05:14:08;6.13;;;3.73;;
64868;SDS011;51349;52.424;10.840;2022-11-06T05:19:09;3.93;;;3.63;;
64868;SDS011;51349;52.424;10.840;2022-11-06T05:24:09;4.50;;;3.43;;
64868;SDS011;51349;52.424;10.840;2022-11-06T05:29:10;5.50;;;3.33;;
64868;SDS011;51349;52.424;10.840;2022-11-06T05:34:11;4.03;;;3.63;;
64868;SDS011;51349;52.424;10.840;2022-11-06T05:39:12;4.23;;;3.83;;
64868;SDS011;51349;52.424;10.840;2022-11-06T05:44:13;4.20;;;3.80;;
64868;SDS011;51349;52.424;10.840;2022-11-06T05:49:13;3.70;;;3.40;;
64868;SDS011;51349;52.424;10.840;2022-11-06T05:54:14;3.77;;;3.40;;
64868;SDS011;51349;52.424;10.840;2022-11-06T05:59:15;4.10;;;3.70;;
64868;SDS011;51349;52.424;10.840;2022-11-06T06:04:15;5.00;;;3.67;;
64868;SDS011;51349;52.424;10.840;2022-11-06T06:09:16;4.43;;;3.67;;
64868;SDS011;51349;52.424;10.840;2022-11-06T06:14:17;3.93;;;3.30;;
64868;SDS011;51349;52.424;10.840;2022-11-06T06:19:18;5.30;;;3.50;;
64868;SDS011;51349;52.424;10.840;2022-11-06T06:24:19;4.50;;;3.77;;
64868;SDS011;51349;52.424;10.840;2022-11-06T06:29:19;4.37;;;2.80;;
64868;SDS011;51349;52.424;10.840;2022-11-06T06:34:20;5.20;;;3.60;;
64868;SDS011;51349;52.424;10.840;2022-11-06T06:39:21;3.90;;;3.30;;
64868;SDS011;51349;52.424;10.840;2022-11-06T06:44:21;4.10;;;3.47;;
64868;SDS011;51349;52.424;10.840;2022-11-06T06:49:22;4.23;;;3.47;;
64868;SDS011;51349;52.424;10.840;2022-11-06T06:54:23;4.20;;;3.47;;
64868;SDS011;51349;52.424;10.840;2022-11-06T06:59:23;4.57;;;3.60;;
64868;SDS011;51349;52.424;10.840;2022-11-06T07:04:24;6.70;;;3.63;;
64868;SDS011;51349;52.424;10.840;2022-11-06T07:09:25;3.73;;;3.30;;
64868;SDS011;51349;52.424;10.840;2022-11-06T07:14:29;5.30;;;3.33;;
64868;SDS011;51349;52.424;10.840;2022-11-06T07:19:33;4.13;;;3.60;;
64868;SDS011;51349;52.424;10.840;2022-11-06T07:24:34;5.70;;;3.60;;
64868;SDS011;51349;52.424;10.840;2022-11-06T07:29:34;5.03;;;3.47;;
64868;SDS011;51349;52.424;10.840;2022-11-06T07:34:35;5.03;;;3.60;;
64868;SDS011;51349;52.424;10.840;2022-11-06T07:39:37;4.80;;;3.57;;
64868;SDS011;51349;52.424;10.840;2022-11-06T07:44:38;4.97;;;3.40;;
64868;SDS011;51349;52.424;10.840;2022-11-06T07:49:39;4.67;;;3.07;;
64868;SDS011;51349;52.424;10.840;2022-11-06T07:54:39;3.43;;;3.10;;
64868;SDS011;51349;52.424;10.840;2022-11-06T07:59:40;5.20;;;3.20;;
64868;SDS011;51349;52.424;10.840;2022-11-06T08:04:41;5.30;;;3.67;;
64868;SDS011;51349;52.424;10.840;2022-11-06T08:09:42;6.27;;;3.20;;
64868;SDS011;51349;52.424;10.840;2022-11-06T08:14:43;5.40;;;3.30;;
64868;SDS011;51349;52.424;10.840;2022-11-06T08:19:43;6.37;;;3.23;;
64868;SDS011;51349;52.424;10.840;2022-11-06T08:24:44;3.27;;;2.97;;
64868;SDS011;51349;52.424;10.840;2022-11-06T08:29:45;3.80;;;3.10;;
64868;SDS011;51349;52.424;10.840;2022-11-06T08:34:45;3.57;;;2.93;;
64868;SDS011;51349;52.424;10.840;2022-11-06T08:39:46;3.60;;;3.30;;
64868;SDS011;51349;52.424;10.840;2022-11-06T08:44:46;3.50;;;2.93;;
64868;SDS011;51349;52.424;10.840;2022-11-06T08:49:47;3.77;;;3.00;;
64868;SDS011;51349;52.424;10.840;2022-11-06T08:54:48;3.90;;;2.70;;
64868;SDS011;51349;52.424;10.840;2022-11-06T08:59:49;3.67;;;2.80;;
64868;SDS011;51349;52.424;10.840;2022-11-06T09:04:50;5.70;;;2.90;;
64868;SDS011;51349;52.424;10.840;2022-11-06T09:09:51;4.37;;;3.20;;
64868;SDS011;51349;52.424;10.840;2022-11-06T09:14:51;3.87;;;2.93;;
64868;SDS011;51349;52.424;10.840;2022-11-06T09:19:52;4.90;;;2.90;;
64868;SDS011;51349;52.424;10.840;2022-11-06T09:24:53;3.53;;;3.00;;
64868;SDS011;51349;52.424;10.840;2022-11-06T09:29:53;3.00;;;2.70;;
64868;SDS011;51349;52.424;10.840;2022-11-06T09:34:54;2.80;;;2.60;;
64868;SDS011;51349;52.424;10.840;2022-11-06T09:39:54;2.90;;;2.70;;
64868;SDS011;51349;52.424;10.840;2022-11-06T09:45:01;2.95;;;2.65;;
64868;SDS011;51349;52.424;10.840;2022-11-06T09:50:24;3.40;;;2.28;;
64868;SDS011;51349;52.424;10.840;2022-11-06T09:55:37;3.53;;;2.40;;
64868;SDS011;51349;52.424;10.840;2022-11-06T10:00:41;2.25;;;2.05;;
64868;SDS011;51349;52.424;10.840;2022-11-06T10:05:42;2.30;;;2.10;;
64868;SDS011;51349;52.424;10.840;2022-11-06T10:10:53;3.03;;;2.40;;
64868;SDS011;51349;52.424;10.840;2022-11-06T10:21:09;2.65;;;1.98;;
64868;SDS011;51349;52.424;10.840;2022-11-06T10:26:41;2.33;;;2.13;;
64868;SDS011;51349;52.424;10.840;2022-11-06T10:37:04;3.20;;;1.90;;
64868;SDS011;51349;52.424;10.840;2022-11-06T10:42:19;4.43;;;2.10;;
64868;SDS011;51349;52.424;10.840;2022-11-06T10:47:25;3.33;;;1.88;;
64868;SDS011;51349;52.424;10.840;2022-11-06T10:57:55;2.35;;;1.75;;
64868;SDS011;51349;52.424;10.840;2022-11-06T11:03:05;1.92;;;1.83;;
64868;SDS011;51349;52.424;10.840;2022-11-06T11:13:34;3.40;;;1.80;;
64868;SDS011;51349;52.424;10.840;2022-11-06T11:18:34;1.95;;;1.80;;
64868;SDS011;51349;52.424;10.840;2022-11-06T11:23:35;2.10;;;1.60;;
64868;SDS011;51349;52.424;10.840;2022-11-06T11:28:35;1.92;;;1.77;;
64868;SDS011;51349;52.424;10.840;2022-11-06T11:33:37;2.38;;;1.50;;
64868;SDS011;51349;52.424;10.840;2022-11-06T11:38:39;2.05;;;1.55;;
64868;SDS011;51349;52.424;10.840;2022-11-06T11:43:41;1.92;;;1.60;;
64868;SDS011;51349;52.424;10.840;2022-11-06T11:48:53;1.75;;;1.52;;
64868;SDS011;51349;52.424;10.840;2022-11-06T11:59:14;2.20;;;1.55;;
64868;SDS011;51349;52.424;10.840;2022-11-06T12:09:47;2.10;;;1.52;;
64868;SDS011;51349;52.424;10.840;2022-11-06T12:20:15;1.33;;;1.23;;
64868;SDS011;51349;52.424;10.840;2022-11-06T12:25:21;1.63;;;1.52;;
64868;SDS011;51349;52.424;10.840;2022-11-06T12:30:28;1.55;;;1.35;;
64868;SDS011;51349;52.424;10.840;2022-11-06T12:35:42;1.50;;;1.40;;
64868;SDS011;51349;52.424;10.840;2022-11-06T12:41:03;2.15;;;1.40;;
64868;SDS011;51349;52.424;10.840;2022-11-06T12:46:14;1.52;;;1.40;;
64868;SDS011;51349;52.424;10.840;2022-11-06T13:12:19;1.65;;;1.50;;
64868;SDS011;51349;52.424;10.840;2022-11-06T13:17:33;1.40;;;1.30;;
64868;SDS011;51349;52.424;10.840;2022-11-06T13:27:50;1.50;;;1.40;;
64868;SDS011;51349;52.424;10.840;2022-11-06T13:38:07;1.33;;;1.23;;
64868;SDS011;51349;52.424;10.840;2022-11-06T13:43:17;2.35;;;1.42;;
64868;SDS011;51349;52.424;10.840;2022-11-06T13:48:36;3.38;;;1.50;;
64868;SDS011;51349;52.424;10.840;2022-11-06T13:53:42;3.33;;;1.52;;
64868;SDS011;51349;52.424;10.840;2022-11-06T14:04:11;1.60;;;1.50;;
64868;SDS011;51349;52.424;10.840;2022-11-06T14:09:21;3.47;;;1.65;;
64868;SDS011;51349;52.424;10.840;2022-11-06T14:14:25;2.97;;;2.15;;
64868;SDS011;51349;52.424;10.840;2022-11-06T14:19:30;3.90;;;3.60;;
64868;SDS011;51349;52.424;10.840;2022-11-06T14:24:32;2.78;;;1.88;;
64868;SDS011;51349;52.424;10.840;2022-11-06T14:34:34;2.95;;;1.80;;
64868;SDS011;51349;52.424;10.840;2022-11-06T14:44:56;1.75;;;1.65;;
64868;SDS011;51349;52.424;10.840;2022-11-06T14:50:00;3.70;;;1.95;;
64868;SDS011;51349;52.424;10.840;2022-11-06T14:55:29;2.10;;;1.85;;
64868;SDS011;51349;52.424;10.840;2022-11-06T15:16:39;1.92;;;1.70;;
64868;SDS011;51349;52.424;10.840;2022-11-06T15:21:44;2.72;;;1.70;;
64868;SDS011;51349;52.424;10.840;2022-11-06T15:27:10;2.10;;;1.80;;
64868;SDS011;51349;52.424;10.840;2022-11-06T15:32:16;2.90;;;2.60;;
64868;SDS011;51349;52.424;10.840;2022-11-06T15:37:22;3.65;;;2.35;;
64868;SDS011;51349;52.424;10.840;2022-11-06T15:42:27;2.60;;;2.17;;
64868;SDS011;51349;52.424;10.840;2022-11-06T15:47:30;3.08;;;2.17;;
64868;SDS011;51349;52.424;10.840;2022-11-06T15:52:32;2.33;;;1.85;;
64868;SDS011;51349;52.424;10.840;2022-11-06T15:57:32;2.85;;;2.60;;
64868;SDS011;51349;52.424;10.840;2022-11-06T16:02:33;3.75;;;2.20;;
64868;SDS011;51349;52.424;10.840;2022-11-06T16:07:46;3.38;;;2.78;;
64868;SDS011;51349;52.424;10.840;2022-11-06T16:12:49;3.80;;;3.00;;
64868;SDS011;51349;52.424;10.840;2022-11-06T16:17:50;5.28;;;2.30;;
64868;SDS011;51349;52.424;10.840;2022-11-06T16:22:51;2.67;;;2.33;;
64868;SDS011;51349;52.424;10.840;2022-11-06T16:27:51;4.40;;;3.15;;
64868;SDS011;51349;52.424;10.840;2022-11-06T16:32:52;5.50;;;2.83;;
64868;SDS011;51349;52.424;10.840;2022-11-06T16:37:53;2.80;;;2.20;;
64868;SDS011;51349;52.424;10.840;2022-11-06T16:42:59;2.63;;;1.80;;
64868;SDS011;51349;52.424;10.840;2022-11-06T16:53:07;2.15;;;1.85;;
64868;SDS011;51349;52.424;10.840;2022-11-06T16:58:12;2.17;;;1.97;;
64868;SDS011;51349;52.424;10.840;2022-11-06T17:03:19;6.20;;;2.28;;
64868;SDS011;51349;52.424;10.840;2022-11-06T17:08:35;2.22;;;2.00;;
64868;SDS011;51349;52.424;10.840;2022-11-06T17:13:37;2.50;;;2.28;;
64868;SDS011;51349;52.424;10.840;2022-11-06T17:18:41;2.67;;;2.45;;
64868;SDS011;51349;52.424;10.840;2022-11-06T17:23:43;3.00;;;2.53;;
64868;SDS011;51349;52.424;10.840;2022-11-06T17:28:44;2.78;;;2.58;;
64868;SDS011;51349;52.424;10.840;2022-11-06T17:33:45;2.65;;;2.40;;
64868;SDS011;51349;52.424;10.840;2022-11-06T17:38:47;4.10;;;3.33;;
64868;SDS011;51349;52.424;10.840;2022-11-06T17:43:48;2.50;;;2.17;;
64868;SDS011;51349;52.424;10.840;2022-11-06T17:48:48;3.17;;;2.70;;
64868;SDS011;51349;52.424;10.840;2022-11-06T17:53:49;3.00;;;2.70;;
64868;SDS011;51349;52.424;10.840;2022-11-06T17:58:50;5.00;;;4.05;;
64868;SDS011;51349;52.424;10.840;2022-11-06T18:03:51;3.77;;;3.47;;
64868;SDS011;51349;52.424;10.840;2022-11-06T18:08:55;5.87;;;4.90;;
64868;SDS011;51349;52.424;10.840;2022-11-06T18:13:57;3.50;;;3.20;;
64868;SDS011;51349;52.424;10.840;2022-11-06T18:18:57;4.33;;;3.40;;
64868;SDS011;51349;52.424;10.840;2022-11-06T18:23:58;3.22;;;2.78;;
64868;SDS011;51349;52.424;10.840;2022-11-06T18:28:59;5.37;;;3.50;;
64868;SDS011;51349;52.424;10.840;2022-11-06T18:34:00;3.93;;;3.53;;
64868;SDS011;51349;52.424;10.840;2022-11-06T18:39:01;8.00;;;5.07;;
64868;SDS011;51349;52.424;10.840;2022-11-06T18:44:02;10.50;;;6.23;;
64868;SDS011;51349;52.424;10.840;2022-11-06T18:49:03;20.03;;;9.67;;
64868;SDS011;51349;52.424;10.840;2022-11-06T18:54:05;7.30;;;4.37;;
64868;SDS011;51349;52.424;10.840;2022-11-06T18:59:07;8.03;;;5.07;;
64868;SDS011;51349;52.424;10.840;2022-11-06T19:04:12;3.70;;;3.40;;
64868;SDS011;51349;52.424;10.840;2022-11-06T19:09:12;3.80;;;3.50;;
64868;SDS011;51349;52.424;10.840;2022-11-06T19:14:13;4.00;;;3.70;;
64868;SDS011;51349;52.424;10.840;2022-11-06T19:19:14;4.27;;;3.80;;
64868;SDS011;51349;52.424;10.840;2022-11-06T19:24:15;2.97;;;2.77;;
64868;SDS011;51349;52.424;10.840;2022-11-06T19:29:15;3.43;;;2.50;;
64868;SDS011;51349;52.424;10.840;2022-11-06T19:34:16;2.60;;;2.40;;
64868;SDS011;51349;52.424;10.840;2022-11-06T19:39:17;3.30;;;2.70;;
64868;SDS011;51349;52.424;10.840;2022-11-06T19:44:18;2.70;;;2.50;;
64868;SDS011;51349;52.424;10.840;2022-11-06T19:49:18;3.03;;;2.83;;
64868;SDS011;51349;52.424;10.840;2022-11-06T19:54:19;3.77;;;2.60;;
64868;SDS011;51349;52.424;10.840;2022-11-06T19:59:19;4.63;;;2.73;;
64868;SDS011;51349;52.424;10.840;2022-11-06T20:04:20;3.33;;;2.87;;
64868;SDS011;51349;52.424;10.840;2022-11-06T20:09:21;3.20;;;2.90;;
64868;SDS011;51349;52.424;10.840;2022-11-06T20:14:24;3.00;;;2.70;;
64868;SDS011;51349;52.424;10.840;2022-11-06T20:19:25;2.60;;;2.40;;
64868;SDS011;51349;52.424;10.840;2022-11-06T20:24:25;2.60;;;2.40;;
64868;SDS011;51349;52.424;10.840;2022-11-06T20:29:26;2.60;;;2.40;;
64868;SDS011;51349;52.424;10.840;2022-11-06T20:34:27;3.00;;;2.70;;
64868;SDS011;51349;52.424;10.840;2022-11-06T20:39:27;3.20;;;2.90;;
64868;SDS011;51349;52.424;10.840;2022-11-06T20:44:28;3.83;;;2.57;;
64868;SDS011;51349;52.424;10.840;2022-11-06T20:49:28;3.57;;;2.80;;
64868;SDS011;51349;52.424;10.840;2022-11-06T20:54:29;3.83;;;2.73;;
64868;SDS011;51349;52.424;10.840;2022-11-06T20:59:30;3.07;;;2.50;;
64868;SDS011;51349;52.424;10.840;2022-11-06T21:04:30;3.20;;;2.90;;
64868;SDS011;51349;52.424;10.840;2022-11-06T21:09:31;2.40;;;2.30;;
64868;SDS011;51349;52.424;10.840;2022-11-06T21:14:32;2.77;;;2.57;;
64868;SDS011;51349;52.424;10.840;2022-11-06T21:19:34;2.83;;;2.63;;
64868;SDS011;51349;52.424;10.840;2022-11-06T21:24:35;2.43;;;2.13;;
64868;SDS011;51349;52.424;10.840;2022-11-06T21:29:35;2.57;;;2.33;;
64868;SDS011;51349;52.424;10.840;2022-11-06T21:34:36;3.17;;;2.93;;
64868;SDS011;51349;52.424;10.840;2022-11-06T21:39:36;2.60;;;2.40;;
64868;SDS011;51349;52.424;10.840;2022-11-06T21:44:37;2.90;;;2.70;;
64868;SDS011;51349;52.424;10.840;2022-11-06T21:49:38;2.90;;;2.60;;
64868;SDS011;51349;52.424;10.840;2022-11-06T21:54:38;3.70;;;3.30;;
64868;SDS011;51349;52.424;10.840;2022-11-06T21:59:57;3.00;;;2.80;;
64868;SDS011;51349;52.424;10.840;2022-11-06T22:04:58;4.20;;;3.80;;
64868;SDS011;51349;52.424;10.840;2022-11-06T22:09:58;4.50;;;4.10;;
64868;SDS011;51349;52.424;10.840;2022-11-06T22:14:59;3.20;;;2.90;;
64868;SDS011;51349;52.424;10.840;2022-11-06T22:20:00;3.57;;;2.90;;
64868;SDS011;51349;52.424;10.840;2022-11-06T22:25:00;2.73;;;2.53;;
64868;SDS011;51349;52.424;10.840;2022-11-06T22:30:01;2.70;;;2.50;;
64868;SDS011;51349;52.424;10.840;2022-11-06T22:35:02;2.70;;;2.50;;
64868;SDS011;51349;52.424;10.840;2022-11-06T22:40:03;2.30;;;2.20;;
64868;SDS011;51349;52.424;10.840;2022-11-06T22:45:04;3.40;;;3.10;;
64868;SDS011;51349;52.424;10.840;2022-11-06T22:50:06;2.80;;;2.57;;
64868;SDS011;51349;52.424;10.840;2022-11-06T22:55:07;2.77;;;2.57;;
64868;SDS011;51349;52.424;10.840;2022-11-06T23:00:08;2.90;;;2.70;;
64868;SDS011;51349;52.424;10.840;2022-11-06T23:05:09;2.63;;;2.43;;
64868;SDS011;51349;52.424;10.840;2022-11-06T23:10:09;2.83;;;2.63;;
64868;SDS011;51349;52.424;10.840;2022-11-06T23:15:10;2.90;;;2.70;;
64868;SDS011;51349;52.424;10.840;2022-11-06T23:20:10;2.60;;;2.40;;
64868;SDS011;51349;52.424;10.840;2022-11-06T23:25:11;2.87;;;2.67;;
64868;SDS011;51349;52.424;10.840;2022-11-06T23:30:13;3.23;;;2.50;;
64868;SDS011;51349;52.424;10.840;2022-11-06T23:35:13;3.00;;;2.80;;
64868;SDS011;51349;52.424;10.840;2022-11-06T23:40:14;3.10;;;2.80;;
64868;SDS011;51349;52.424;10.840;2022-11-06T23:45:15;3.00;;;2.80;;
64868;SDS011;51349;52.424;10.840;2022-11-06T23:50:34;3.00;;;2.80;;
64868;SDS011;51349;52.424;10.840;2022-11-06T23:55:35;3.20;;;2.90;;
